Time;durP1;ratioP1;P1;durP2;ratioP2;P2;SDS_P1;SDS_P2;PMS_P1;PMS_P2;Temp;Humidity;BMP_temperature;BMP_pressure;BME280_temperature;BME280_humidity;BME280_pressure;Samples;Min_cycle;Max_cycle;Signal;HPM_P1;HPM_P2
2021/10/12 00:02:23;;;;;;;108.35;56.90;;;;;;;7.41;83.35;99180.33;4249079;82;21063;-81
2021/10/12 00:08:25;;;;;;;108.70;58.40;;;;;;;7.46;83.72;99176.00;4251085;82;21098;-81
2021/10/12 00:14:26;;;;;;;108.35;59.65;;;;;;;7.49;83.72;99172.01;4248357;82;21378;-81
2021/10/12 00:20:27;;;;;;;110.15;59.63;;;;;;;7.51;84.24;99163.48;4256948;82;21649;-81
2021/10/12 00:26:29;;;;;;;108.22;58.10;;;;;;;7.53;84.51;99159.26;4257870;82;21042;-81
2021/10/12 00:32:30;;;;;;;105.20;54.18;;;;;;;7.54;84.56;99156.77;4243070;82;21097;-81
2021/10/12 00:38:31;;;;;;;96.60;52.23;;;;;;;7.48;84.87;99152.73;4250454;82;22263;-81
2021/10/12 00:44:34;;;;;;;96.05;52.53;;;;;;;7.47;85.26;99153.08;4254820;82;21151;-81
2021/10/12 00:50:39;;;;;;;104.90;54.93;;;;;;;7.48;85.47;99147.28;4246183;82;21050;-81
2021/10/12 00:56:40;;;;;;;110.35;55.08;;;;;;;7.51;85.83;99138.97;4246148;82;21035;-82
2021/10/12 01:02:42;;;;;;;96.63;50.98;;;;;;;7.49;86.23;99140.69;4239914;82;21027;-81
2021/10/12 01:08:43;;;;;;;84.40;45.83;;;;;;;7.52;86.63;99135.89;4253500;82;21027;-81
2021/10/12 01:14:45;;;;;;;81.08;43.78;;;;;;;7.57;86.51;99133.47;4248660;82;21002;-81
2021/10/12 01:20:53;;;;;;;82.85;46.48;;;;;;;7.61;86.80;99128.33;4245329;82;22251;-80
2021/10/12 01:26:55;;;;;;;84.80;45.55;;;;;;;7.64;87.25;99124.13;4243327;82;22278;-81
2021/10/12 01:32:57;;;;;;;83.90;46.60;;;;;;;7.69;87.38;99119.75;4250607;82;20979;-81
2021/10/12 01:39:18;;;;;;;81.92;44.80;;;;;;;7.70;87.65;99116.70;4234348;82;21390;-81
2021/10/12 01:45:19;;;;;;;80.87;45.17;;;;;;;7.73;87.79;99109.19;4245759;82;21727;-81
2021/10/12 01:51:21;;;;;;;73.35;43.65;;;;;;;7.72;88.03;99106.22;4251141;82;21054;-81
2021/10/12 01:57:22;;;;;;;76.95;43.70;;;;;;;7.78;88.34;99097.22;4246352;82;21120;-81
2021/10/12 02:03:23;;;;;;;74.67;43.45;;;;;;;7.81;88.38;99097.88;4261510;82;21090;-81
2021/10/12 02:09:24;;;;;;;79.37;44.13;;;;;;;7.82;88.57;99090.70;4251127;82;21638;-81
2021/10/12 02:15:26;;;;;;;70.12;40.28;;;;;;;7.82;88.70;99085.26;4254211;82;21064;-81
2021/10/12 02:21:27;;;;;;;71.53;39.50;;;;;;;7.84;88.71;99074.00;4244073;82;21049;-82
2021/10/12 02:27:28;;;;;;;70.83;38.85;;;;;;;7.83;89.14;99080.02;4252482;82;21080;-82
2021/10/12 02:33:30;;;;;;;65.75;38.60;;;;;;;7.88;89.25;99082.47;4256861;82;21037;-83
2021/10/12 02:39:31;;;;;;;61.50;36.53;;;;;;;7.91;89.49;99070.86;4262949;82;21094;-82
2021/10/12 02:45:32;;;;;;;62.17;35.98;;;;;;;7.94;89.60;99074.23;4260603;82;21735;-81
2021/10/12 02:51:33;;;;;;;67.55;36.98;;;;;;;7.94;89.62;99074.23;4222096;82;29635;-81
2021/10/12 02:57:35;;;;;;;61.90;37.48;;;;;;;7.95;89.71;99077.16;4216985;82;21061;-82
2021/10/12 03:03:36;;;;;;;62.65;34.60;;;;;;;7.95;89.95;99078.53;4214070;82;21036;-81
2021/10/12 03:09:38;;;;;;;61.60;34.00;;;;;;;7.93;90.06;99082.20;4214807;83;21040;-81
2021/10/12 03:15:39;;;;;;;55.67;31.80;;;;;;;7.93;90.04;99076.75;4219129;83;21001;-83
2021/10/12 03:21:49;;;;;;;63.73;35.38;;;;;;;7.94;90.42;99072.07;4214542;83;21575;-82
2021/10/12 03:27:43;;;;;;;54.42;32.17;;;;;;;7.94;90.29;99066.05;4213935;83;21378;-82
2021/10/12 03:33:45;;;;;;;56.90;30.92;;;;;;;7.90;90.42;99062.47;4221614;83;21026;-81
2021/10/12 03:39:46;;;;;;;51.15;30.40;;;;;;;7.84;90.52;99051.63;4217468;83;21547;-82
2021/10/12 03:45:47;;;;;;;44.90;27.60;;;;;;;7.84;90.62;99057.08;4217276;83;21063;-82
2021/10/12 03:51:49;;;;;;;47.62;28.10;;;;;;;7.81;90.59;99054.27;4223320;83;21052;-82
2021/10/12 03:57:51;;;;;;;48.15;25.72;;;;;;;7.76;90.72;99058.63;4217439;82;21518;-81
2021/10/12 04:03:53;;;;;;;43.23;26.10;;;;;;;7.72;90.87;99057.77;4219878;82;21094;-83
2021/10/12 04:09:55;;;;;;;41.80;24.57;;;;;;;7.74;91.06;99050.01;4222143;83;20978;-81
2021/10/12 04:15:57;;;;;;;43.33;27.55;;;;;;;7.78;90.92;99042.13;4222486;82;22371;-81
2021/10/12 04:22:00;;;;;;;45.25;27.73;;;;;;;7.75;91.10;99030.58;4212507;83;22362;-81
2021/10/12 04:28:04;;;;;;;46.58;28.17;;;;;;;7.56;91.19;99015.53;4216715;83;21107;-82
2021/10/12 04:34:05;;;;;;;44.27;26.82;;;;;;;7.48;91.53;99028.00;4211516;82;21048;-82
2021/10/12 04:40:10;;;;;;;40.90;25.15;;;;;;;7.48;91.48;99011.09;4213603;83;21127;-82
2021/10/12 04:46:14;;;;;;;43.50;24.67;;;;;;;7.44;91.88;99001.23;4210793;82;21522;-81
2021/10/12 04:52:16;;;;;;;38.67;25.37;;;;;;;7.47;91.89;99001.91;4216971;83;21029;-81
2021/10/12 04:58:17;;;;;;;43.13;24.55;;;;;;;7.45;91.89;98999.55;4232278;82;21054;-81
2021/10/12 05:04:41;;;;;;;;;;;;;;;;;;;;;
2021/10/12 05:10:36;;;;;;;38.42;22.70;;;;;;;7.44;92.03;98987.05;4209726;82;21989;-81
2021/10/12 05:16:37;;;;;;;39.50;22.48;;;;;;;7.47;92.08;98980.89;4212357;82;21009;-82
2021/10/12 05:22:51;;;;;;;39.92;23.02;;;;;;;7.49;92.21;98977.81;4218036;83;21034;-82
2021/10/12 05:28:53;;;;;;;37.65;21.48;;;;;;;7.53;92.39;98977.34;4218186;83;21611;-81
2021/10/12 05:34:59;;;;;;;37.83;20.97;;;;;;;7.58;92.13;98972.39;4211902;83;21072;-82
2021/10/12 05:41:00;;;;;;;36.77;21.35;;;;;;;7.58;92.25;98961.50;4221259;83;21009;-81
2021/10/12 05:47:02;;;;;;;42.35;24.02;;;;;;;7.60;92.56;98964.66;4213108;82;21519;-81
2021/10/12 05:59:23;;;;;;;36.33;22.10;;;;;;;7.69;92.63;98974.78;4220035;83;21020;-82
2021/10/12 06:05:25;;;;;;;35.83;21.70;;;;;;;7.76;92.60;98974.95;4211783;83;21001;-81
2021/10/12 06:11:26;;;;;;;40.00;24.50;;;;;;;7.74;92.75;98965.53;4225739;80;33333;-82
2021/10/12 06:17:28;;;;;;;44.25;22.70;;;;;;;7.71;92.68;98977.95;4264675;82;21516;-82
2021/10/12 06:23:30;;;;;;;41.00;23.05;;;;;;;7.83;93.13;98971.56;4266946;82;21119;-82
2021/10/12 06:29:31;;;;;;;38.95;21.85;;;;;;;7.88;93.01;98968.00;4263655;82;21018;-82
2021/10/12 06:35:33;;;;;;;40.50;22.85;;;;;;;7.95;93.00;98978.27;4264902;82;21250;-83
2021/10/12 06:41:35;;;;;;;41.53;23.20;;;;;;;7.96;93.27;98967.00;4266208;81;21092;-82
2021/10/12 06:47:37;;;;;;;37.35;22.67;;;;;;;7.97;93.48;98973.25;4266203;81;21100;-81
2021/10/12 06:53:42;;;;;;;39.80;20.90;;;;;;;8.05;93.62;98968.14;4275147;82;21081;-82
2021/10/12 06:59:42;;;;;;;38.25;21.68;;;;;;;8.17;93.69;98968.02;4280531;82;21383;-82
2021/10/12 07:05:43;;;;;;;41.98;21.97;;;;;;;8.22;93.45;98978.64;4281013;82;20983;-80
2021/10/12 07:11:45;;;;;;;45.50;23.35;;;;;;;8.28;93.43;98973.70;4288216;82;20994;-82
2021/10/12 07:17:47;;;;;;;35.68;20.70;;;;;;;8.31;93.51;98983.33;4278290;82;21821;-83
2021/10/12 07:23:48;;;;;;;45.60;21.77;;;;;;;8.27;93.51;98974.86;4280791;82;21068;-82
2021/10/12 07:29:51;;;;;;;39.00;22.37;;;;;;;8.34;93.77;98983.97;4277129;82;21028;-82
2021/10/12 07:35:52;;;;;;;42.20;22.60;;;;;;;8.35;93.65;98981.44;4280480;82;21105;-83
2021/10/12 07:41:54;;;;;;;33.08;20.60;;;;;;;8.43;93.91;98980.43;4277651;82;21015;-82
2021/10/12 07:47:56;;;;;;;34.45;19.98;;;;;;;8.55;94.17;98973.44;4278360;81;21069;-83
2021/10/12 07:54:00;;;;;;;38.28;19.15;;;;;;;8.66;94.14;98979.89;4266393;82;21052;-82
2021/10/12 08:00:01;;;;;;;34.08;19.05;;;;;;;8.71;93.94;98980.16;4263761;82;21094;-83
2021/10/12 08:06:02;;;;;;;37.83;20.17;;;;;;;8.72;93.76;98977.06;4264341;82;21084;-83
2021/10/12 08:12:05;;;;;;;34.50;20.23;;;;;;;8.75;94.00;98976.37;4264475;82;21089;-83
2021/10/12 08:18:07;;;;;;;37.38;20.80;;;;;;;8.79;93.98;98961.40;4263726;82;21048;-82
2021/10/12 08:24:11;;;;;;;34.03;19.95;;;;;;;8.82;93.73;98957.37;4267081;82;21576;-83
2021/10/12 08:30:13;;;;;;;35.13;18.50;;;;;;;8.80;93.80;98963.77;4263146;82;21036;-83
2021/10/12 08:36:15;;;;;;;35.98;18.77;;;;;;;8.77;93.60;98957.67;4265697;82;21081;-81
2021/10/12 08:42:37;;;;;;;38.53;20.10;;;;;;;8.81;93.81;98953.64;4264911;82;21543;-83
2021/10/12 08:48:39;;;;;;;38.23;22.00;;;;;;;8.81;93.67;98957.17;4266910;82;21061;-83
2021/10/12 08:54:40;;;;;;;36.40;20.30;;;;;;;8.94;93.72;98955.81;4277265;82;21755;-82
2021/10/12 09:00:42;;;;;;;36.42;19.40;;;;;;;9.05;93.58;98952.69;4278251;82;20993;-82
2021/10/12 09:06:48;;;;;;;33.92;19.55;;;;;;;9.25;93.36;98954.77;4277377;82;21065;-82
2021/10/12 09:12:52;;;;;;;41.33;21.73;;;;;;;9.38;93.20;98956.15;4280083;81;21031;-82
2021/10/12 09:18:57;;;;;;;39.92;21.57;;;;;;;9.39;93.28;98952.25;4275973;82;21571;-82
2021/10/12 09:25:16;;;;;;;35.55;21.30;;;;;;;9.40;93.03;98950.52;4275172;82;21956;-82
2021/10/12 09:31:17;;;;;;;33.27;22.10;;;;;;;9.50;92.83;98945.80;4277907;82;21656;-82
2021/10/12 09:37:20;;;;;;;32.42;21.07;;;;;;;9.54;92.68;98943.09;4279870;82;21527;-82
2021/10/12 09:43:27;;;;;;;33.48;18.55;;;;;;;9.62;92.49;98935.77;4279658;82;21085;-81
2021/10/12 09:49:28;;;;;;;26.48;17.50;;;;;;;9.76;92.20;98929.13;4275988;82;21025;-83
2021/10/12 09:55:37;;;;;;;26.27;17.07;;;;;;;10.01;91.94;98929.66;4278159;82;21099;-82
2021/10/12 10:01:39;;;;;;;29.70;18.65;;;;;;;10.25;91.81;98915.53;4277468;82;21115;-83
2021/10/12 10:07:45;;;;;;;27.32;17.40;;;;;;;10.24;90.64;98913.94;4268820;82;21027;-82
2021/10/12 10:13:47;;;;;;;33.83;18.37;;;;;;;10.03;90.60;98910.94;4270461;82;21053;-82
2021/10/12 10:19:49;;;;;;;27.62;17.25;;;;;;;9.97;90.76;98903.44;4270003;82;21112;-82
2021/10/12 10:25:51;;;;;;;32.17;17.48;;;;;;;10.11;91.14;98892.69;4273459;82;21038;-82
2021/10/12 10:32:00;;;;;;;24.67;13.90;;;;;;;10.31;90.62;98888.03;4256516;82;43731;-82
2021/10/12 10:38:26;;;;;;;23.45;12.70;;;;;;;10.60;89.79;98870.71;4052055;86;21078;-82
2021/10/12 10:45:00;;;;;;;31.30;13.33;;;;;;;11.30;90.24;98859.52;4096708;86;21450;-82
2021/10/12 10:51:06;;;;;;;21.27;12.90;;;;;;;11.61;88.51;98856.15;4075274;86;21685;-82
2021/10/12 10:57:15;;;;;;;20.68;11.95;;;;;;;11.42;87.53;98852.33;4123631;85;21513;-82
2021/10/12 11:03:40;;;;;;;14.23;8.85;;;;;;;11.44;87.82;98847.26;4097809;86;21656;-82
2021/10/12 11:09:43;;;;;;;14.03;8.35;;;;;;;11.35;86.93;98845.45;4123665;85;21119;-82
2021/10/12 11:15:49;;;;;;;17.55;7.58;;;;;;;11.59;86.43;98834.41;4223055;82;21111;-82
2021/10/12 11:21:57;;;;;;;14.40;8.08;;;;;;;11.89;86.38;98819.27;4215566;83;21921;-83
2021/10/12 11:28:11;;;;;;;10.88;5.00;;;;;;;11.93;85.01;98818.67;4224898;83;21038;-82
2021/10/12 11:34:14;;;;;;;10.10;5.58;;;;;;;11.81;84.40;98810.02;4225334;83;21095;-82
2021/10/12 11:40:18;;;;;;;10.60;3.33;;;;;;;11.71;83.80;98800.61;4218022;83;21109;-82
2021/10/12 11:46:23;;;;;;;8.38;2.67;;;;;;;11.55;82.35;98804.81;4220751;83;21073;-82
2021/10/12 11:52:30;;;;;;;6.10;2.00;;;;;;;11.70;81.92;98791.41;4228201;83;21093;-83
2021/10/12 11:58:31;;;;;;;5.95;2.58;;;;;;;11.85;79.75;98790.27;4223767;83;22274;-82
2021/10/12 12:04:37;;;;;;;6.65;2.67;;;;;;;11.82;79.17;98784.19;4214181;83;21068;-82
2021/10/12 12:11:24;;;;;;;;;;;;;;;;;;;;;
2021/10/12 12:17:25;;;;;;;6.30;2.20;;;;;;;11.75;77.54;98766.33;4192700;83;21823;-82
2021/10/12 12:23:37;;;;;;;4.78;2.15;;;;;;;11.84;77.05;98766.16;4221972;83;21018;-82
2021/10/12 12:29:38;;;;;;;7.20;2.60;;;;;;;11.89;76.97;98754.81;4228266;83;21057;-82
2021/10/12 12:35:45;;;;;;;6.92;2.85;;;;;;;11.68;76.22;98753.98;4224050;83;21544;-82
2021/10/12 12:41:47;;;;;;;6.80;2.65;;;;;;;11.58;75.45;98741.78;4224430;83;21073;-83
2021/10/12 12:47:56;;;;;;;6.85;2.87;;;;;;;11.58;75.08;98732.76;4217906;82;21116;-82
2021/10/12 12:54:00;;;;;;;8.90;3.17;;;;;;;11.58;74.60;98733.55;4215150;83;21065;-83
2021/10/12 13:00:08;;;;;;;8.25;2.98;;;;;;;11.52;73.39;98730.20;4212791;83;21666;-82
2021/10/12 13:06:10;;;;;;;7.20;2.90;;;;;;;11.53;73.02;98726.28;4210956;83;21070;-82
2021/10/12 13:12:14;;;;;;;7.12;2.67;;;;;;;11.57;72.92;98733.37;4217742;83;21166;-82
2021/10/12 13:18:15;;;;;;;8.30;3.77;;;;;;;11.60;72.60;98733.16;4215696;83;21065;-81
2021/10/12 13:24:16;;;;;;;7.90;4.15;;;;;;;11.52;72.07;98729.63;4221992;82;21054;-82
2021/10/12 13:30:18;;;;;;;8.98;3.95;;;;;;;11.37;71.80;98723.88;4225667;83;21022;-82
2021/10/12 13:36:19;;;;;;;12.53;5.78;;;;;;;11.26;71.99;98724.42;4217272;83;21120;-82
2021/10/12 13:42:21;;;;;;;6.67;4.10;;;;;;;11.12;72.08;98720.86;4218060;83;21101;-81
2021/10/12 13:48:22;;;;;;;7.80;3.27;;;;;;;10.85;71.26;98729.92;4212623;82;21073;-82
2021/10/12 13:54:24;;;;;;;9.68;3.02;;;;;;;10.54;71.95;98720.32;4228391;83;21494;-82
2021/10/12 14:00:26;;;;;;;5.97;3.20;;;;;;;10.51;72.59;98703.88;4222279;83;21001;-81
2021/10/12 14:06:28;;;;;;;5.28;2.87;;;;;;;10.57;72.21;98694.16;4228618;82;21006;-81
2021/10/12 14:12:29;;;;;;;6.40;3.10;;;;;;;10.55;72.53;98686.91;4231840;83;21195;-82
2021/10/12 14:18:33;;;;;;;6.95;2.75;;;;;;;10.57;72.87;98687.32;4224047;83;21177;-81
2021/10/12 14:24:34;;;;;;;9.75;3.85;;;;;;;10.67;73.05;98684.63;4235845;83;21109;-81
2021/10/12 14:30:36;;;;;;;9.80;4.28;;;;;;;10.56;72.20;98676.15;4228457;83;21504;-83
2021/10/12 14:36:38;;;;;;;8.18;4.53;;;;;;;10.50;72.15;98663.42;4238963;83;21530;-82
2021/10/12 14:42:41;;;;;;;8.43;3.90;;;;;;;10.47;72.18;98671.03;4235513;83;21070;-81
2021/10/12 14:48:43;;;;;;;11.18;4.47;;;;;;;10.40;72.05;98660.02;4233793;83;21097;-82
2021/10/12 14:54:45;;;;;;;13.25;5.60;;;;;;;10.31;72.33;98657.42;4216727;83;21081;-81
2021/10/12 15:00:46;;;;;;;10.65;5.47;;;;;;;10.18;72.36;98646.61;4218413;82;21026;-81
2021/10/12 15:06:51;;;;;;;12.37;6.10;;;;;;;10.13;72.68;98653.79;4214896;83;21526;-81
2021/10/12 15:12:52;;;;;;;13.85;6.35;;;;;;;10.06;73.13;98653.69;4232439;82;21023;-81
2021/10/12 15:18:54;;;;;;;15.90;6.87;;;;;;;9.93;73.00;98655.17;4215014;83;21189;-81
2021/10/12 15:24:56;;;;;;;14.60;6.85;;;;;;;9.77;73.03;98654.63;4228958;83;21194;-83
2021/10/12 15:30:59;;;;;;;15.90;8.03;;;;;;;9.69;73.76;98654.36;4222175;82;21046;-82
2021/10/12 15:37:04;;;;;;;19.87;8.25;;;;;;;9.55;73.93;98649.56;4219188;83;21106;-82
2021/10/12 15:43:06;;;;;;;15.40;7.45;;;;;;;9.35;73.95;98648.17;4218535;83;21110;-82
2021/10/12 15:49:08;;;;;;;15.18;7.08;;;;;;;9.13;74.87;98651.26;4211550;83;21621;-83
2021/10/12 15:55:09;;;;;;;17.20;6.67;;;;;;;8.97;75.02;98650.67;4230862;83;21530;-81
2021/10/12 16:01:10;;;;;;;16.17;8.10;;;;;;;8.93;75.52;98648.50;4226035;83;21077;-81
2021/10/12 16:07:11;;;;;;;17.32;7.40;;;;;;;8.81;75.66;98644.66;4231165;83;21057;-81
2021/10/12 16:13:13;;;;;;;17.65;8.25;;;;;;;8.67;75.91;98643.67;4218343;83;20978;-82
2021/10/12 16:19:24;;;;;;;22.55;10.38;;;;;;;8.53;76.24;98640.77;4228582;83;21530;-82
2021/10/12 16:25:25;;;;;;;24.18;11.88;;;;;;;8.18;76.10;98636.13;4226707;82;21034;-82
2021/10/12 16:31:31;;;;;;;24.63;12.63;;;;;;;7.94;76.41;98632.67;4230133;82;21492;-82
2021/10/12 16:37:30;;;;;;;26.68;11.53;;;;;;;7.85;77.03;98640.33;4225613;82;21045;-83
2021/10/12 16:43:32;;;;;;;20.12;9.45;;;;;;;7.79;77.67;98643.72;4235377;83;21585;-82
2021/10/12 16:49:34;;;;;;;15.48;8.70;;;;;;;7.79;78.37;98652.69;4230026;82;21077;-81
2021/10/12 16:55:37;;;;;;;24.02;12.05;;;;;;;7.83;78.90;98657.61;4221306;82;21543;-82
2021/10/12 17:01:42;;;;;;;32.93;13.28;;;;;;;7.89;79.09;98654.78;4235599;82;21042;-82
2021/10/12 17:07:44;;;;;;;26.15;13.15;;;;;;;7.76;78.70;98648.53;4226964;82;21519;-82
2021/10/12 17:13:46;;;;;;;22.52;12.53;;;;;;;7.61;79.02;98648.09;4220362;83;21019;-82
2021/10/12 17:19:47;;;;;;;28.95;14.73;;;;;;;7.69;79.99;98641.59;4230056;82;21553;-82
2021/10/12 17:25:48;;;;;;;34.05;17.55;;;;;;;7.74;80.32;98645.37;4223710;82;21075;-82
2021/10/12 17:31:49;;;;;;;28.27;15.83;;;;;;;7.74;80.24;98646.17;4227348;82;20999;-82
2021/10/12 17:37:50;;;;;;;25.17;14.05;;;;;;;7.72;80.57;98647.10;4233621;83;21026;-82
2021/10/12 17:43:54;;;;;;;22.00;12.30;;;;;;;7.70;80.70;98641.82;4230901;83;21018;-82
2021/10/12 17:49:55;;;;;;;23.62;13.35;;;;;;;7.65;80.74;98646.20;4225751;82;21594;-84
2021/10/12 17:55:57;;;;;;;32.65;14.43;;;;;;;7.58;80.49;98644.14;4223400;82;21011;-84
2021/10/12 18:01:58;;;;;;;26.17;15.05;;;;;;;7.50;80.89;98647.13;4219584;83;21034;-83
2021/10/12 18:07:59;;;;;;;28.65;13.03;;;;;;;7.41;81.10;98647.91;4222890;83;21101;-84
2021/10/12 18:14:09;;;;;;;29.60;13.95;;;;;;;7.30;80.64;98645.56;4213754;83;21041;-81
2021/10/12 18:20:10;;;;;;;22.05;13.60;;;;;;;7.21;80.92;98644.45;4217356;83;21082;-81
2021/10/12 18:26:11;;;;;;;26.80;14.85;;;;;;;7.13;81.24;98652.84;4221821;83;21022;-82
2021/10/12 18:32:12;;;;;;;36.00;20.35;;;;;;;7.02;81.41;98657.28;4224950;83;21095;-82
2021/10/12 18:38:13;;;;;;;31.37;15.93;;;;;;;6.98;81.26;98654.52;4223667;82;21117;-82
2021/10/12 18:44:18;;;;;;;24.27;14.38;;;;;;;7.07;81.64;98663.80;4204422;83;21070;-82
2021/10/12 18:50:20;;;;;;;30.90;16.25;;;;;;;7.14;81.54;98678.33;4217000;83;21086;-83
2021/10/12 18:56:21;;;;;;;27.80;14.23;;;;;;;7.13;81.90;98677.33;4222820;83;21049;-82
2021/10/12 19:02:24;;;;;;;33.45;17.23;;;;;;;7.17;81.76;98670.80;4215338;83;21041;-83
2021/10/12 19:08:25;;;;;;;32.17;15.60;;;;;;;7.22;82.64;98662.95;4220873;82;21069;-81
2021/10/12 19:14:26;;;;;;;35.17;19.42;;;;;;;7.28;82.58;98668.31;4213411;83;21578;-82
2021/10/12 19:20:28;;;;;;;29.48;16.12;;;;;;;7.30;82.20;98665.42;4216585;83;21696;-82
2021/10/12 19:26:29;;;;;;;27.52;13.03;;;;;;;7.32;81.96;98667.22;4223001;83;21093;-82
2021/10/12 19:32:31;;;;;;;30.90;16.12;;;;;;;7.33;81.87;98661.98;4225355;83;21515;-83
2021/10/12 19:38:33;;;;;;;38.15;19.55;;;;;;;7.21;81.80;98673.04;4221051;83;21567;-82
2021/10/12 19:44:34;;;;;;;51.95;25.08;;;;;;;7.03;82.85;98670.53;4211554;83;21033;-82
2021/10/12 19:50:42;;;;;;;50.50;27.42;;;;;;;6.91;82.95;98680.77;4221070;83;21454;-83
2021/10/12 19:56:43;;;;;;;60.60;31.02;;;;;;;6.91;83.54;98682.94;4239709;82;21078;-81
2021/10/12 20:09:04;;;;;;;63.58;32.85;;;;;;;7.00;83.63;98674.56;4222243;82;21763;-83
2021/10/12 20:15:06;;;;;;;55.73;33.00;;;;;;;7.02;83.41;98670.33;4214341;83;21760;-82
2021/10/12 20:21:07;;;;;;;60.38;33.78;;;;;;;7.08;84.11;98674.92;4230550;83;21510;-81
2021/10/12 20:27:09;;;;;;;53.17;31.93;;;;;;;7.14;83.82;98666.67;4234055;83;21087;-81
2021/10/12 20:33:10;;;;;;;62.38;31.15;;;;;;;7.19;84.40;98666.36;4236137;83;21006;-82
2021/10/12 20:39:11;;;;;;;64.17;32.10;;;;;;;7.09;83.65;98661.52;4225084;82;21022;-82
2021/10/12 20:45:13;;;;;;;56.75;31.10;;;;;;;6.98;83.78;98656.44;4231698;83;21515;-82
2021/10/12 20:51:14;;;;;;;65.62;30.80;;;;;;;7.13;84.61;98661.00;4106432;82;9999822;-82
2021/10/12 20:57:15;;;;;;;59.65;30.68;;;;;;;7.19;84.62;98667.16;4225426;83;21006;-81
2021/10/12 21:03:17;;;;;;;53.98;27.58;;;;;;;7.17;84.05;98663.23;4226413;83;21050;-82
2021/10/12 21:09:18;;;;;;;50.45;28.15;;;;;;;7.10;84.37;98663.09;4225518;83;21552;-82
2021/10/12 21:15:20;;;;;;;60.95;30.75;;;;;;;7.13;84.86;98674.61;4228792;83;21569;-82
2021/10/12 21:21:22;;;;;;;70.67;34.03;;;;;;;7.15;84.97;98677.77;4223143;82;22387;-82
2021/10/12 21:27:26;;;;;;;65.85;34.67;;;;;;;7.23;85.21;98683.57;4224060;83;21150;-82
2021/10/12 21:33:26;;;;;;;69.67;35.80;;;;;;;7.23;85.25;98678.92;4232142;83;21053;-84
2021/10/12 21:39:28;;;;;;;68.20;34.95;;;;;;;7.19;85.22;98694.38;4228277;83;21037;-81
2021/10/12 21:45:29;;;;;;;71.67;34.60;;;;;;;7.20;85.32;98687.02;4226948;83;21047;-81
2021/10/12 21:51:30;;;;;;;61.20;34.35;;;;;;;7.20;85.47;98685.09;4220919;83;21054;-82
2021/10/12 21:57:32;;;;;;;60.90;31.85;;;;;;;7.16;85.44;98684.22;4226565;83;21046;-82
2021/10/12 22:03:34;;;;;;;55.85;30.40;;;;;;;7.18;85.72;98682.49;4236873;82;21030;-83
2021/10/12 22:09:36;;;;;;;57.98;30.45;;;;;;;7.19;85.93;98692.23;4223151;82;21094;-82
2021/10/12 22:15:39;;;;;;;55.30;27.58;;;;;;;7.20;86.26;98693.25;4226063;83;21522;-82
2021/10/12 22:21:42;;;;;;;54.15;29.92;;;;;;;7.25;86.43;98697.02;4223634;83;21129;-82
2021/10/12 22:27:44;;;;;;;58.28;29.67;;;;;;;7.23;86.69;98695.26;4227846;83;21046;-82
2021/10/12 22:33:45;;;;;;;58.33;27.22;;;;;;;7.29;86.74;98691.66;4236322;83;21058;-82
2021/10/12 22:39:46;;;;;;;44.70;23.57;;;;;;;7.23;87.12;98693.89;4243812;83;21082;-82
2021/10/12 22:45:48;;;;;;;36.15;20.00;;;;;;;7.23;87.46;98703.42;4232376;83;21518;-82
2021/10/12 22:51:49;;;;;;;42.20;20.92;;;;;;;7.25;87.67;98695.66;4236926;83;21069;-82
2021/10/12 22:57:50;;;;;;;34.43;19.55;;;;;;;7.30;87.87;98701.39;4169779;82;21613;-83
2021/10/12 23:03:51;;;;;;;34.58;19.92;;;;;;;7.33;88.01;98696.61;4174409;83;21061;-82
2021/10/12 23:09:53;;;;;;;33.33;19.37;;;;;;;7.34;88.31;98694.09;4178425;83;21097;-82
2021/10/12 23:15:54;;;;;;;36.68;18.75;;;;;;;7.33;88.40;98702.05;4180557;83;21355;-82
2021/10/12 23:21:55;;;;;;;41.30;21.97;;;;;;;7.37;88.49;98694.73;4168093;83;21070;-82
2021/10/12 23:27:57;;;;;;;38.05;22.05;;;;;;;7.40;88.87;98697.52;4176972;83;21025;-82
2021/10/12 23:33:58;;;;;;;44.08;23.02;;;;;;;7.42;89.13;98694.44;4177178;82;21471;-82
2021/10/12 23:39:59;;;;;;;41.63;20.65;;;;;;;7.45;89.10;98692.36;4186758;83;21036;-82
2021/10/12 23:46:00;;;;;;;38.63;20.72;;;;;;;7.50;89.31;98698.88;4160673;83;21618;-82
2021/10/12 23:52:03;;;;;;;39.10;19.40;;;;;;;7.51;89.38;98702.59;4175022;83;21092;-82
2021/10/12 23:58:05;;;;;;;30.45;17.80;;;;;;;7.48;89.68;98699.23;4182667;83;21054;-84
